Time;durP1;ratioP1;P1;durP2;ratioP2;P2;SDS_P1;SDS_P2;PMS_P1;PMS_P2;Temp;Humidity;BMP_temperature;BMP_pressure;BME280_temperature;BME280_humidity;BME280_pressure;Samples;Min_cycle;Max_cycle;Signal;HPM_P1;HPM_P2
2021/07/15 00:00:46;;;;;;;10.75;4.90;;;27.60;60.40;;;;;;6183758;28;81671;-66
2021/07/15 00:03:47;;;;;;;7.03;4.07;;;27.60;60.70;;;;;;6178619;28;80436;-67
2021/07/15 00:06:47;;;;;;;8.93;4.15;;;27.60;60.60;;;;;;6184744;28;82339;-66
2021/07/15 00:09:48;;;;;;;8.18;4.55;;;27.60;60.70;;;;;;6172303;28;87907;-66
2021/07/15 00:12:48;;;;;;;9.50;4.43;;;27.60;60.80;;;;;;6182718;28;80760;-66
2021/07/15 00:15:49;;;;;;;10.77;4.47;;;27.60;60.70;;;;;;6184015;28;80910;-66
2021/07/15 00:18:49;;;;;;;9.45;4.55;;;27.60;60.60;;;;;;6177517;28;80539;-66
2021/07/15 00:21:50;;;;;;;8.18;4.38;;;27.60;60.80;;;;;;6183430;28;80081;-66
2021/07/15 00:24:51;;;;;;;9.30;4.45;;;27.60;60.70;;;;;;6185383;28;80902;-66
2021/07/15 00:27:51;;;;;;;7.20;4.10;;;27.60;60.80;;;;;;6184225;28;80411;-66
2021/07/15 00:30:52;;;;;;;8.95;4.28;;;27.60;60.90;;;;;;6183481;28;80414;-66
2021/07/15 00:33:52;;;;;;;9.55;4.72;;;27.60;61.10;;;;;;6172765;28;80514;-66
2021/07/15 00:36:53;;;;;;;9.95;4.18;;;27.60;61.00;;;;;;6175500;28;81600;-66
2021/07/15 00:39:53;;;;;;;8.63;4.05;;;27.60;61.00;;;;;;6180545;28;80885;-67
2021/07/15 00:42:54;;;;;;;13.30;4.47;;;27.60;61.10;;;;;;6184465;28;80304;-66
2021/07/15 00:45:54;;;;;;;9.25;4.05;;;27.60;61.00;;;;;;6175379;28;80358;-67
2021/07/15 00:48:55;;;;;;;7.78;4.05;;;27.60;61.10;;;;;;6179574;28;80326;-66
2021/07/15 00:51:55;;;;;;;9.27;3.97;;;27.60;61.00;;;;;;6179754;28;80259;-67
2021/07/15 00:54:56;;;;;;;5.72;3.70;;;27.60;61.20;;;;;;6176799;28;80371;-66
2021/07/15 00:57:56;;;;;;;9.30;4.03;;;27.70;61.10;;;;;;6171806;28;81114;-67
2021/07/15 01:00:57;;;;;;;17.27;3.63;;;27.60;61.00;;;;;;6181881;28;83586;-67
2021/07/15 01:03:57;;;;;;;7.35;4.15;;;27.60;61.30;;;;;;6183192;28;80146;-66
2021/07/15 01:06:58;;;;;;;8.25;4.18;;;27.60;61.40;;;;;;6180702;28;80714;-66
2021/07/15 01:09:58;;;;;;;9.82;3.78;;;27.60;61.30;;;;;;6171689;28;80941;-67
2021/07/15 01:12:58;;;;;;;6.65;3.50;;;27.60;61.10;;;;;;6175514;28;80397;-66
2021/07/15 01:15:59;;;;;;;8.88;4.00;;;27.60;61.30;;;;;;6174909;28;80222;-66
2021/07/15 01:19:00;;;;;;;6.40;3.70;;;27.60;61.30;;;;;;6181740;28;80264;-66
2021/07/15 01:22:00;;;;;;;6.43;3.55;;;27.60;60.70;;;;;;6180705;28;80707;-66
2021/07/15 01:25:01;;;;;;;11.50;3.78;;;27.60;61.10;;;;;;6177335;28;80381;-66
2021/07/15 01:28:01;;;;;;;12.27;3.90;;;27.60;60.80;;;;;;6181039;28;80729;-66
2021/07/15 01:31:02;;;;;;;6.88;3.65;;;27.60;61.10;;;;;;6175939;28;80474;-66
2021/07/15 01:34:02;;;;;;;9.60;3.85;;;27.60;61.20;;;;;;6180953;28;80563;-66
2021/07/15 01:37:03;;;;;;;6.63;3.25;;;27.60;60.90;;;;;;6180690;28;80455;-67
2021/07/15 01:40:03;;;;;;;9.55;3.72;;;27.60;61.00;;;;;;6174267;28;80612;-66
2021/07/15 01:43:04;;;;;;;7.68;3.30;;;27.60;60.90;;;;;;6172060;28;80598;-67
2021/07/15 01:46:04;;;;;;;7.75;3.90;;;27.60;61.20;;;;;;6174065;28;83921;-67
2021/07/15 01:49:06;;;;;;;5.97;3.35;;;27.60;61.00;;;;;;6172262;28;81639;-66
2021/07/15 01:52:06;;;;;;;7.80;3.90;;;27.60;61.00;;;;;;6182395;28;80398;-64
2021/07/15 01:55:07;;;;;;;7.85;3.17;;;27.60;60.80;;;;;;6179371;28;81642;-65
2021/07/15 01:58:08;;;;;;;7.80;3.67;;;27.60;61.10;;;;;;6175299;28;80647;-65
2021/07/15 02:01:09;;;;;;;6.85;3.78;;;27.60;60.80;;;;;;6171545;28;80322;-67
2021/07/15 02:04:09;;;;;;;7.50;4.03;;;27.60;60.80;;;;;;6169441;28;81026;-67
2021/07/15 02:07:09;;;;;;;6.50;3.90;;;27.60;61.10;;;;;;6181211;28;80439;-67
2021/07/15 02:10:10;;;;;;;8.02;3.65;;;27.60;61.10;;;;;;6177990;28;80980;-67
2021/07/15 02:13:10;;;;;;;12.15;4.30;;;27.60;61.00;;;;;;6180367;28;81423;-68
2021/07/15 02:16:11;;;;;;;7.13;3.67;;;27.60;61.00;;;;;;6173363;28;80811;-67
2021/07/15 02:19:11;;;;;;;7.50;4.55;;;27.60;61.10;;;;;;6177862;28;81036;-67
2021/07/15 02:22:12;;;;;;;9.88;4.97;;;27.60;61.10;;;;;;6174691;28;81245;-66
2021/07/15 02:25:12;;;;;;;9.63;4.40;;;27.60;60.90;;;;;;6171684;28;80810;-67
2021/07/15 02:28:13;;;;;;;8.07;4.10;;;27.60;60.90;;;;;;6171093;28;80694;-66
2021/07/15 02:31:14;;;;;;;11.93;5.18;;;27.60;61.30;;;;;;6168225;28;80565;-66
2021/07/15 02:34:14;;;;;;;8.25;4.32;;;27.60;61.30;;;;;;6179311;28;80305;-66
2021/07/15 02:37:15;;;;;;;9.00;4.60;;;27.60;61.30;;;;;;6178957;28;80766;-66
2021/07/15 02:40:15;;;;;;;8.25;4.78;;;27.60;62.00;;;;;;6171735;28;80561;-66
2021/07/15 02:43:16;;;;;;;9.32;4.68;;;27.60;61.20;;;;;;6176628;28;80987;-66
2021/07/15 02:46:16;;;;;;;9.55;5.05;;;27.60;61.40;;;;;;6175504;28;82228;-65
2021/07/15 02:49:17;;;;;;;12.32;4.45;;;27.60;61.30;;;;;;6179082;28;80441;-65
2021/07/15 02:52:17;;;;;;;9.70;4.68;;;27.60;61.40;;;;;;6171995;28;80784;-66
2021/07/15 02:55:18;;;;;;;10.98;4.60;;;27.60;61.50;;;;;;6179177;28;80337;-66
2021/07/15 02:58:18;;;;;;;10.43;4.03;;;27.60;61.40;;;;;;6180694;28;80442;-65
2021/07/15 03:01:19;;;;;;;7.32;4.07;;;27.60;61.50;;;;;;6181151;28;80957;-66
2021/07/15 03:04:19;;;;;;;8.55;4.40;;;27.60;61.50;;;;;;6173756;28;80941;-66
2021/07/15 03:07:20;;;;;;;11.32;4.85;;;27.60;61.30;;;;;;6166867;28;81316;-67
2021/07/15 03:10:20;;;;;;;12.00;4.75;;;27.60;61.40;;;;;;6170377;28;81855;-67
2021/07/15 03:13:21;;;;;;;11.15;4.88;;;27.60;61.80;;;;;;6176327;28;80303;-67
2021/07/15 03:16:21;;;;;;;13.32;5.15;;;27.60;61.50;;;;;;6173746;28;82887;-66
2021/07/15 03:19:22;;;;;;;7.85;4.57;;;27.60;61.60;;;;;;6177230;28;80607;-66
2021/07/15 03:22:22;;;;;;;9.63;5.20;;;27.60;61.80;;;;;;6169462;28;80960;-66
2021/07/15 03:25:23;;;;;;;7.00;4.50;;;27.60;61.40;;;;;;6179248;28;80473;-67
2021/07/15 03:28:23;;;;;;;12.57;4.55;;;27.60;61.40;;;;;;6180901;28;80738;-67
2021/07/15 03:31:24;;;;;;;9.60;4.40;;;27.60;61.80;;;;;;6178594;28;80537;-66
2021/07/15 03:34:24;;;;;;;8.32;4.72;;;27.60;61.50;;;;;;6175526;28;80330;-66
2021/07/15 03:37:25;;;;;;;9.52;5.22;;;27.60;61.40;;;;;;6176742;28;80688;-67
2021/07/15 03:40:25;;;;;;;9.23;5.15;;;27.60;61.50;;;;;;6169552;28;82990;-67
2021/07/15 03:43:26;;;;;;;13.07;5.10;;;27.50;61.80;;;;;;6167422;28;80461;-66
2021/07/15 03:46:26;;;;;;;10.00;4.43;;;27.60;61.50;;;;;;6174294;28;80296;-66
2021/07/15 03:49:28;;;;;;;10.23;4.72;;;27.50;61.50;;;;;;6180631;28;80280;-66
2021/07/15 03:52:29;;;;;;;10.77;5.13;;;27.60;61.80;;;;;;6180724;28;81342;-66
2021/07/15 03:55:29;;;;;;;9.63;4.47;;;27.60;61.60;;;;;;6172311;28;80369;-66
2021/07/15 03:58:30;;;;;;;11.98;5.38;;;27.60;61.90;;;;;;6182604;28;83158;-67
2021/07/15 04:01:30;;;;;;;8.10;4.65;;;27.50;61.70;;;;;;6185053;28;80265;-66
2021/07/15 04:04:31;;;;;;;9.73;4.95;;;27.60;61.80;;;;;;6179209;28;81484;-65
2021/07/15 04:07:31;;;;;;;13.38;4.85;;;27.60;61.80;;;;;;6170737;28;80350;-65
2021/07/15 04:10:32;;;;;;;10.32;4.30;;;27.60;61.90;;;;;;6173297;28;81262;-65
2021/07/15 04:13:32;;;;;;;10.45;5.70;;;27.50;62.00;;;;;;6175802;28;80844;-64
2021/07/15 04:16:33;;;;;;;13.18;4.55;;;27.50;61.90;;;;;;6172789;28;81171;-67
2021/07/15 04:19:33;;;;;;;18.30;5.05;;;27.50;61.80;;;;;;6179569;28;80350;-66
2021/07/15 04:22:34;;;;;;;8.38;4.55;;;27.60;61.90;;;;;;6173216;28;80588;-66
2021/07/15 04:25:34;;;;;;;10.82;4.88;;;27.60;61.80;;;;;;6180675;28;80796;-65
2021/07/15 04:28:35;;;;;;;7.38;4.50;;;27.60;62.30;;;;;;6183073;28;81306;-65
2021/07/15 04:31:35;;;;;;;11.77;4.90;;;27.60;62.30;;;;;;6173178;28;80698;-65
2021/07/15 04:34:36;;;;;;;13.15;4.88;;;27.60;62.40;;;;;;6184352;28;80472;-65
2021/07/15 04:37:36;;;;;;;11.43;4.97;;;27.60;62.80;;;;;;6175965;28;80382;-69
2021/07/15 04:40:37;;;;;;;9.45;5.70;;;27.50;62.30;;;;;;6182513;28;80736;-67
2021/07/15 04:43:37;;;;;;;12.75;6.25;;;27.50;62.40;;;;;;6184212;28;80306;-65
2021/07/15 04:46:38;;;;;;;13.13;7.13;;;27.50;62.40;;;;;;6171409;28;80687;-67
2021/07/15 04:49:38;;;;;;;13.93;7.32;;;27.50;63.10;;;;;;6182568;28;80980;-67
2021/07/15 04:52:40;;;;;;;14.00;7.22;;;27.50;63.40;;;;;;6173919;28;80654;-68
2021/07/15 04:55:40;;;;;;;16.63;8.15;;;27.60;63.60;;;;;;6171295;28;81081;-68
2021/07/15 04:58:41;;;;;;;15.88;8.25;;;27.50;64.10;;;;;;6177851;28;81126;-68
2021/07/15 05:01:41;;;;;;;17.45;9.10;;;27.50;63.80;;;;;;6181604;28;80138;-67
2021/07/15 05:04:42;;;;;;;19.13;9.45;;;27.50;63.90;;;;;;6183016;28;80528;-69
2021/07/15 05:07:42;;;;;;;18.63;9.30;;;27.50;64.30;;;;;;6176191;28;80374;-68
2021/07/15 05:10:43;;;;;;;18.23;9.20;;;27.50;64.40;;;;;;6169929;28;86007;-67
2021/07/15 05:13:43;;;;;;;18.48;10.77;;;27.50;64.60;;;;;;6172947;28;81056;-69
2021/07/15 05:16:44;;;;;;;20.95;11.57;;;27.50;65.00;;;;;;6178883;28;83272;-69
2021/07/15 05:19:44;;;;;;;23.33;11.02;;;27.30;65.30;;;;;;6163069;28;83702;-68
2021/07/15 05:22:45;;;;;;;15.43;9.20;;;27.00;66.10;;;;;;6180123;28;83231;-68
2021/07/15 05:25:45;;;;;;;21.13;8.43;;;26.90;65.80;;;;;;6181709;28;81728;-66
2021/07/15 05:28:46;;;;;;;12.05;7.50;;;26.90;65.30;;;;;;6172367;28;81653;-66
2021/07/15 05:31:47;;;;;;;20.50;7.85;;;26.90;64.10;;;;;;6178971;28;80430;-66
2021/07/15 05:34:47;;;;;;;11.77;6.90;;;27.00;64.30;;;;;;6182272;28;80208;-67
2021/07/15 05:37:48;;;;;;;14.65;7.50;;;27.00;64.20;;;;;;6167452;28;87664;-67
2021/07/15 05:40:49;;;;;;;16.17;6.47;;;27.10;64.40;;;;;;6174048;28;80639;-68
2021/07/15 05:43:50;;;;;;;12.77;6.47;;;27.20;64.60;;;;;;6169583;28;81074;-65
2021/07/15 05:46:51;;;;;;;12.10;6.88;;;27.10;64.50;;;;;;6168644;28;80895;-68
2021/07/15 05:49:51;;;;;;;15.40;6.72;;;27.20;64.40;;;;;;6167806;28;81510;-67
2021/07/15 05:52:52;;;;;;;22.08;6.90;;;27.20;64.40;;;;;;6191515;28;81196;-67
2021/07/15 05:55:52;;;;;;;11.32;6.72;;;27.30;64.10;;;;;;6169703;28;80580;-68
2021/07/15 05:58:53;;;;;;;14.27;6.75;;;27.30;64.10;;;;;;6177982;28;84139;-66
2021/07/15 06:01:53;;;;;;;17.85;6.68;;;27.30;64.10;;;;;;6180346;28;81114;-66
2021/07/15 06:04:54;;;;;;;15.40;6.35;;;27.30;63.70;;;;;;6183149;28;80357;-68
2021/07/15 06:07:54;;;;;;;13.93;6.57;;;27.30;63.90;;;;;;6170775;28;83061;-64
2021/07/15 06:10:54;;;;;;;17.35;6.57;;;27.30;63.90;;;;;;6175823;28;80724;-69
2021/07/15 06:13:55;;;;;;;13.55;7.25;;;27.30;63.90;;;;;;6179345;28;82851;-67
2021/07/15 06:16:55;;;;;;;11.10;6.68;;;27.30;64.20;;;;;;6177894;28;80639;-67
2021/07/15 06:19:56;;;;;;;14.23;8.52;;;27.30;64.30;;;;;;6172317;28;80724;-67
2021/07/15 06:22:56;;;;;;;18.58;8.98;;;27.30;64.60;;;;;;6182153;28;80520;-67
2021/07/15 06:25:57;;;;;;;16.38;8.65;;;27.30;64.70;;;;;;6175162;28;80534;-66
2021/07/15 06:28:57;;;;;;;19.27;8.20;;;27.30;65.00;;;;;;6163375;28;80847;-67
2021/07/15 06:31:58;;;;;;;13.40;7.70;;;27.30;65.20;;;;;;6181914;28;80240;-67
2021/07/15 06:34:58;;;;;;;20.77;8.07;;;27.40;65.60;;;;;;6178166;28;83236;-67
2021/07/15 06:37:59;;;;;;;14.43;7.53;;;27.40;65.50;;;;;;6182867;28;80865;-67
2021/07/15 06:40:59;;;;;;;14.75;7.45;;;27.40;65.30;;;;;;6177963;28;80817;-67
2021/07/15 06:44:00;;;;;;;12.68;8.00;;;27.40;65.90;;;;;;6182038;28;80822;-67
2021/07/15 06:47:04;;;;;;;18.48;7.88;;;27.50;65.70;;;;;;6172851;28;81585;-66
2021/07/15 06:50:04;;;;;;;12.70;7.60;;;27.40;65.90;;;;;;6181756;28;80551;-67
2021/07/15 06:53:05;;;;;;;10.52;7.15;;;27.40;66.30;;;;;;6184231;28;80754;-66
2021/07/15 06:56:05;;;;;;;17.73;7.45;;;27.40;65.90;;;;;;6184645;28;80601;-67
2021/07/15 06:59:06;;;;;;;13.30;7.45;;;27.20;66.30;;;;;;6179258;28;80327;-66
2021/07/15 07:02:06;;;;;;;17.23;9.35;;;27.00;66.60;;;;;;6179064;28;80725;-66
2021/07/15 07:05:06;;;;;;;16.08;7.72;;;27.00;66.60;;;;;;6166425;28;80582;-67
2021/07/15 07:08:07;;;;;;;14.85;7.97;;;27.00;66.20;;;;;;6167989;28;80403;-67
2021/07/15 07:11:07;;;;;;;11.35;7.43;;;27.10;66.00;;;;;;6170880;28;81648;-65
2021/07/15 07:14:08;;;;;;;12.63;7.00;;;27.00;65.10;;;;;;6176131;28;80502;-67
2021/07/15 07:17:08;;;;;;;11.75;6.25;;;27.00;64.90;;;;;;6180354;28;81324;-67
2021/07/15 07:20:09;;;;;;;13.07;6.50;;;27.10;64.20;;;;;;6180055;28;80412;-65
2021/07/15 07:23:17;;;;;;;17.70;6.13;;;27.10;64.10;;;;;;6171588;28;83179;-67
2021/07/15 07:26:17;;;;;;;8.55;4.70;;;27.10;63.90;;;;;;6172255;28;80704;-67
2021/07/15 07:29:17;;;;;;;13.18;5.10;;;26.90;61.30;;;;;;6184405;28;80772;-67
2021/07/15 07:32:18;;;;;;;24.85;6.22;;;26.10;61.10;;;;;;6187601;28;81241;-66
2021/07/15 07:35:18;;;;;;;16.90;5.55;;;25.10;66.70;;;;;;6173655;28;81521;-67
2021/07/15 07:38:19;;;;;;;13.63;4.68;;;25.40;66.40;;;;;;6187486;28;81715;-66
2021/07/15 07:41:19;;;;;;;11.23;4.00;;;25.70;65.30;;;;;;6186168;28;80326;-67
2021/07/15 07:44:20;;;;;;;17.13;4.93;;;25.90;64.80;;;;;;6191763;28;83507;-67
2021/07/15 07:47:20;;;;;;;7.07;4.00;;;26.10;64.30;;;;;;6188299;28;80454;-67
2021/07/15 07:50:22;;;;;;;8.27;4.40;;;26.20;64.00;;;;;;6186052;28;80402;-66
2021/07/15 07:53:23;;;;;;;8.75;4.18;;;26.30;63.70;;;;;;6182367;28;80595;-66
2021/07/15 07:56:23;;;;;;;11.43;4.57;;;26.40;63.50;;;;;;6184146;28;81917;-65
2021/07/15 07:59:24;;;;;;;10.07;5.00;;;26.40;63.30;;;;;;6188955;28;80883;-67
2021/07/15 08:02:24;;;;;;;8.40;4.32;;;26.50;63.30;;;;;;6171887;28;80684;-67
2021/07/15 08:05:25;;;;;;;12.50;4.35;;;26.60;63.40;;;;;;6186392;28;81242;-67
2021/07/15 08:08:27;;;;;;;8.60;4.40;;;26.60;63.30;;;;;;6171380;28;82474;-66
2021/07/15 08:11:28;;;;;;;11.65;4.82;;;26.50;63.30;;;;;;6176746;28;80886;-65
2021/07/15 08:14:29;;;;;;;11.00;4.53;;;26.50;63.20;;;;;;6176324;28;81038;-65
2021/07/15 08:17:29;;;;;;;10.18;5.68;;;26.60;63.30;;;;;;6174945;28;80405;-66
2021/07/15 08:20:30;;;;;;;8.77;4.22;;;26.60;63.30;;;;;;6176007;28;80628;-65
2021/07/15 08:23:30;;;;;;;9.07;4.38;;;26.70;63.40;;;;;;6173700;28;83176;-66
2021/07/15 08:26:31;;;;;;;8.80;3.65;;;26.70;63.00;;;;;;6183705;28;80849;-66
2021/07/15 08:29:31;;;;;;;9.23;3.90;;;26.70;62.60;;;;;;6175747;28;80770;-66
2021/07/15 08:32:32;;;;;;;8.63;4.45;;;26.80;62.80;;;;;;6184106;28;80997;-66
2021/07/15 08:35:33;;;;;;;5.60;3.55;;;26.80;62.70;;;;;;6178596;28;80460;-67
2021/07/15 08:38:33;;;;;;;6.97;3.97;;;26.80;62.40;;;;;;6181318;28;80500;-66
2021/07/15 08:41:34;;;;;;;8.75;4.28;;;26.90;62.20;;;;;;6175985;28;81848;-66
2021/07/15 08:44:34;;;;;;;12.13;4.50;;;26.90;62.10;;;;;;6190569;28;80896;-66
2021/07/15 08:47:35;;;;;;;8.85;4.90;;;26.90;62.20;;;;;;6181563;28;80855;-66
2021/07/15 08:50:35;;;;;;;8.20;4.05;;;26.80;62.00;;;;;;6182057;28;80452;-66
2021/07/15 08:53:36;;;;;;;12.52;4.50;;;26.80;62.30;;;;;;6177796;28;80956;-66
2021/07/15 08:56:36;;;;;;;10.00;4.15;;;26.80;62.60;;;;;;6180871;28;80614;-66
2021/07/15 08:59:37;;;;;;;7.38;3.50;;;26.80;62.70;;;;;;6178377;28;80715;-66
2021/07/15 09:02:37;;;;;;;8.00;4.35;;;26.80;63.00;;;;;;6180363;28;81507;-67
2021/07/15 09:05:38;;;;;;;10.63;5.07;;;26.80;63.10;;;;;;6171879;28;81035;-67
2021/07/15 09:08:38;;;;;;;9.52;4.47;;;26.80;63.10;;;;;;6170262;28;80760;-67
2021/07/15 09:11:39;;;;;;;12.23;4.40;;;26.80;63.30;;;;;;6170512;28;80713;-67
2021/07/15 09:14:39;;;;;;;8.90;4.25;;;26.90;63.60;;;;;;6172814;28;80893;-67
2021/07/15 09:17:40;;;;;;;7.68;4.82;;;26.90;63.20;;;;;;6172217;28;82076;-66
2021/07/15 09:20:40;;;;;;;9.85;4.75;;;26.80;63.40;;;;;;6171888;28;80300;-66
2021/07/15 09:23:41;;;;;;;12.98;4.90;;;26.80;63.70;;;;;;6169336;28;83067;-68
2021/07/15 09:26:41;;;;;;;10.30;4.85;;;26.80;63.60;;;;;;6171604;28;80556;-67
2021/07/15 09:29:42;;;;;;;10.70;4.13;;;26.80;64.00;;;;;;6170544;28;81313;-67
2021/07/15 09:32:42;;;;;;;13.82;4.50;;;26.80;63.90;;;;;;6168335;28;80570;-67
2021/07/15 09:35:43;;;;;;;6.55;3.63;;;26.80;64.00;;;;;;6169081;28;81834;-67
2021/07/15 09:38:43;;;;;;;7.57;3.90;;;26.80;63.90;;;;;;6175147;28;81245;-66
2021/07/15 09:41:44;;;;;;;15.82;3.92;;;26.80;63.80;;;;;;6178896;28;81955;-67
2021/07/15 09:44:46;;;;;;;6.85;3.78;;;26.70;63.80;;;;;;6167490;28;81408;-67
2021/07/15 09:47:48;;;;;;;6.93;3.78;;;26.70;63.60;;;;;;6168886;28;80482;-68
2021/07/15 09:50:49;;;;;;;13.38;3.83;;;26.70;63.60;;;;;;6169446;28;80831;-69
2021/07/15 09:53:49;;;;;;;5.95;3.78;;;26.70;63.80;;;;;;6166882;28;80765;-69
2021/07/15 09:56:50;;;;;;;5.90;4.38;;;26.80;63.60;;;;;;6172313;28;82372;-69
2021/07/15 09:59:50;;;;;;;8.02;4.82;;;26.90;63.60;;;;;;6165969;28;80348;-67
2021/07/15 10:02:51;;;;;;;12.00;5.05;;;26.90;63.40;;;;;;6172925;28;80950;-68
2021/07/15 10:05:51;;;;;;;9.85;5.40;;;27.00;63.40;;;;;;6166318;28;80261;-68
2021/07/15 10:08:52;;;;;;;12.75;6.00;;;27.00;64.00;;;;;;6165562;28;80434;-67
2021/07/15 10:11:56;;;;;;;12.05;6.05;;;27.00;64.20;;;;;;6168365;28;80978;-67
2021/07/15 10:14:56;;;;;;;7.07;5.15;;;27.00;64.70;;;;;;6164834;28;80325;-67
2021/07/15 10:17:57;;;;;;;11.45;5.85;;;27.00;64.50;;;;;;6163811;28;81419;-67
2021/07/15 10:20:57;;;;;;;11.38;5.68;;;27.10;64.30;;;;;;6173056;28;82194;-68
2021/07/15 10:23:58;;;;;;;23.52;7.53;;;27.10;64.90;;;;;;6169183;28;80684;-68
2021/07/15 10:26:58;;;;;;;23.95;7.72;;;27.10;65.50;;;;;;6179227;28;80168;-67
2021/07/15 10:29:59;;;;;;;29.73;8.52;;;27.10;65.50;;;;;;6173880;28;80504;-67
2021/07/15 10:32:59;;;;;;;54.70;21.63;;;27.10;65.10;;;;;;6172530;28;80533;-67
2021/07/15 10:36:00;;;;;;;59.45;25.90;;;27.10;65.50;;;;;;6164957;28;83211;-68
2021/07/15 10:39:00;;;;;;;47.58;20.63;;;27.10;65.40;;;;;;6167212;28;84110;-68
2021/07/15 10:42:01;;;;;;;46.97;19.50;;;27.10;65.40;;;;;;6164530;28;83097;-67
2021/07/15 10:45:01;;;;;;;20.02;11.70;;;27.10;65.30;;;;;;6168671;28;83296;-68
2021/07/15 10:48:02;;;;;;;20.30;10.10;;;27.00;65.30;;;;;;6161992;28;82984;-68
2021/07/15 10:51:03;;;;;;;13.45;8.07;;;27.00;65.60;;;;;;6164248;28;83402;-67
2021/07/15 10:54:03;;;;;;;16.45;7.68;;;27.00;65.70;;;;;;6171992;28;83932;-69
2021/07/15 10:57:03;;;;;;;14.80;7.60;;;27.00;65.70;;;;;;6165994;28;80347;-69
2021/07/15 11:00:04;;;;;;;14.40;7.88;;;27.00;66.00;;;;;;6172369;28;80505;-66
2021/07/15 11:03:04;;;;;;;12.77;7.07;;;27.00;66.20;;;;;;6175073;28;81208;-67
2021/07/15 11:06:05;;;;;;;13.18;7.38;;;27.10;65.80;;;;;;6178335;28;82671;-67
2021/07/15 11:09:06;;;;;;;13.55;7.35;;;27.10;65.70;;;;;;6174426;28;80885;-68
2021/07/15 11:12:06;;;;;;;11.90;6.93;;;27.10;65.70;;;;;;6182031;28;81929;-67
2021/07/15 11:15:07;;;;;;;13.93;7.60;;;27.10;65.80;;;;;;6194533;28;82917;-67
2021/07/15 11:18:07;;;;;;;17.27;7.65;;;27.10;64.90;;;;;;6178346;28;82729;-68
2021/07/15 11:21:07;;;;;;;13.15;6.95;;;27.10;65.80;;;;;;6173631;28;81014;-68
2021/07/15 11:24:08;;;;;;;13.40;6.55;;;27.20;65.70;;;;;;6176525;28;81416;-68
2021/07/15 11:27:08;;;;;;;11.68;6.82;;;27.20;65.70;;;;;;6181616;28;80659;-69
2021/07/15 11:30:09;;;;;;;10.68;7.00;;;27.10;66.30;;;;;;6177937;28;81734;-68
2021/07/15 11:33:09;;;;;;;12.93;6.95;;;27.20;66.40;;;;;;6181349;28;81138;-68
2021/07/15 11:36:10;;;;;;;14.95;7.57;;;27.10;65.70;;;;;;6176749;28;80600;-68
2021/07/15 11:39:11;;;;;;;13.55;7.20;;;27.20;65.70;;;;;;6174275;28;81183;-67
2021/07/15 11:42:11;;;;;;;15.48;7.50;;;27.20;66.00;;;;;;6179809;28;80325;-68
2021/07/15 11:45:12;;;;;;;17.60;7.95;;;27.20;66.40;;;;;;6183508;28;81626;-68
2021/07/15 11:48:12;;;;;;;16.63;9.45;;;27.20;66.60;;;;;;6172846;28;80525;-68
2021/07/15 11:51:13;;;;;;;18.02;9.88;;;27.20;66.70;;;;;;6174679;28;80879;-68
2021/07/15 11:54:13;;;;;;;18.10;9.32;;;27.20;67.00;;;;;;6177473;28;80306;-68
2021/07/15 11:57:14;;;;;;;19.17;9.65;;;27.20;66.70;;;;;;6175987;28;80643;-67
2021/07/15 12:00:15;;;;;;;16.08;9.70;;;27.20;67.70;;;;;;6188175;28;81513;-70
2021/07/15 12:03:15;;;;;;;16.55;10.60;;;27.20;67.10;;;;;;6172627;28;80650;-70
2021/07/15 12:06:16;;;;;;;21.58;10.32;;;27.30;67.90;;;;;;6163083;28;82787;-69
2021/07/15 12:09:17;;;;;;;17.33;10.25;;;27.30;68.50;;;;;;6173532;28;85601;-68
2021/07/15 12:12:17;;;;;;;20.13;11.98;;;27.20;69.30;;;;;;6173472;28;87218;-68
2021/07/15 12:15:19;;;;;;;19.42;11.02;;;27.10;70.00;;;;;;6171879;28;83117;-68
2021/07/15 12:18:19;;;;;;;18.85;11.13;;;27.10;69.80;;;;;;6172727;28;85043;-67
2021/07/15 12:21:20;;;;;;;25.02;11.15;;;27.00;69.20;;;;;;6178650;28;83484;-68
2021/07/15 12:24:20;;;;;;;22.83;11.38;;;26.90;69.60;;;;;;6164378;28;82971;-68
2021/07/15 12:27:21;;;;;;;20.08;10.95;;;27.00;69.40;;;;;;6180180;28;83566;-69
2021/07/15 12:30:22;;;;;;;17.80;10.82;;;27.20;69.00;;;;;;6181234;28;83216;-65
2021/07/15 12:33:22;;;;;;;22.90;11.60;;;27.20;68.80;;;;;;6172156;28;83003;-68
2021/07/15 12:36:22;;;;;;;20.48;12.10;;;27.30;68.60;;;;;;6170439;28;84459;-68
2021/07/15 12:39:23;;;;;;;21.25;12.38;;;27.30;68.40;;;;;;6178117;28;83926;-69
2021/07/15 12:42:23;;;;;;;25.45;12.07;;;27.30;69.50;;;;;;6176623;28;83354;-66
2021/07/15 12:45:24;;;;;;;22.88;11.88;;;27.30;69.00;;;;;;6175627;28;83336;-66
2021/07/15 12:48:24;;;;;;;23.48;12.85;;;27.30;68.70;;;;;;6174545;28;83485;-67
2021/07/15 12:51:25;;;;;;;23.83;14.02;;;27.40;68.30;;;;;;6179759;28;83387;-66
2021/07/15 12:54:49;;;;;;;28.88;13.85;;;27.40;67.80;;;;;;6168440;28;83622;-67
2021/07/15 12:57:49;;;;;;;21.35;12.90;;;27.40;67.80;;;;;;6174840;28;88142;-69
2021/07/15 13:00:49;;;;;;;24.25;13.45;;;27.40;68.10;;;;;;6169928;28;83492;-66
2021/07/15 13:03:50;;;;;;;24.25;13.40;;;27.40;68.50;;;;;;6163955;28;83340;-67
2021/07/15 13:06:50;;;;;;;23.65;14.05;;;27.40;69.70;;;;;;6167666;28;83023;-68
2021/07/15 13:10:04;;;;;;;25.77;13.50;;;27.50;69.80;;;;;;6169337;28;83579;-68
2021/07/15 13:16:23;;;;;;;22.80;12.80;;;27.50;69.90;;;;;;6174494;28;83069;-67
2021/07/15 13:19:24;;;;;;;20.05;12.93;;;27.60;69.70;;;;;;6167470;28;83964;-69
2021/07/15 13:22:24;;;;;;;22.77;12.43;;;27.60;69.90;;;;;;6173510;28;83425;-67
2021/07/15 13:25:25;;;;;;;20.10;13.02;;;27.60;70.00;;;;;;6172789;28;85854;-68
2021/07/15 13:28:25;;;;;;;21.73;12.65;;;27.60;70.60;;;;;;6171464;28;82905;-69
2021/07/15 13:31:26;;;;;;;21.10;12.65;;;27.60;70.40;;;;;;6173939;28;86020;-69
2021/07/15 13:34:26;;;;;;;16.73;11.90;;;27.70;70.50;;;;;;6178241;28;84191;-70
2021/07/15 13:37:27;;;;;;;22.35;13.05;;;27.70;70.30;;;;;;6166464;28;83472;-68
2021/07/15 13:40:27;;;;;;;18.02;11.68;;;27.70;70.20;;;;;;6171090;28;82978;-67
2021/07/15 13:43:28;;;;;;;23.52;12.57;;;27.70;70.60;;;;;;6169642;28;83284;-69
2021/07/15 13:46:29;;;;;;;20.30;11.77;;;27.80;70.90;;;;;;6170011;28;83251;-68
2021/07/15 13:49:29;;;;;;;19.80;13.07;;;27.70;70.10;;;;;;6166129;28;83041;-68
2021/07/15 13:52:30;;;;;;;24.02;12.07;;;27.70;69.00;;;;;;6165563;28;84240;-68
2021/07/15 13:55:31;;;;;;;19.38;12.02;;;27.80;68.30;;;;;;6165040;28;83096;-68
2021/07/15 13:58:31;;;;;;;19.02;12.60;;;27.70;68.00;;;;;;6166503;28;83779;-68
2021/07/15 14:01:32;;;;;;;16.48;11.73;;;27.80;67.90;;;;;;6164484;28;83363;-68
2021/07/15 14:04:33;;;;;;;23.52;12.27;;;27.80;67.70;;;;;;6169566;28;84987;-68
2021/07/15 14:07:35;;;;;;;17.38;12.20;;;27.70;67.60;;;;;;6171962;28;83864;-67
2021/07/15 14:10:35;;;;;;;21.77;12.73;;;27.70;68.50;;;;;;6166598;28;84336;-69
2021/07/15 14:13:36;;;;;;;16.85;12.27;;;27.70;68.80;;;;;;6165749;28;83150;-69
2021/07/15 14:16:36;;;;;;;18.75;12.25;;;27.70;68.80;;;;;;6165663;28;83457;-68
2021/07/15 14:19:37;;;;;;;21.30;13.07;;;27.70;69.30;;;;;;6169077;28;83076;-69
2021/07/15 14:22:37;;;;;;;30.30;15.15;;;27.70;69.70;;;;;;6167633;28;84141;-68
2021/07/15 14:25:37;;;;;;;24.20;14.18;;;27.70;69.40;;;;;;6168984;28;84213;-68
2021/07/15 14:28:38;;;;;;;25.77;13.75;;;27.70;68.90;;;;;;6166974;28;84230;-69
2021/07/15 14:31:40;;;;;;;18.58;13.98;;;27.80;68.60;;;;;;6162562;28;83598;-68
2021/07/15 14:34:41;;;;;;;28.50;14.32;;;27.80;69.10;;;;;;6166289;28;83334;-67
2021/07/15 14:37:43;;;;;;;19.92;13.63;;;27.80;69.50;;;;;;6162618;28;83712;-67
2021/07/15 14:40:43;;;;;;;28.10;15.35;;;27.80;69.40;;;;;;6171891;28;84195;-68
2021/07/15 14:43:44;;;;;;;22.15;14.50;;;27.80;69.60;;;;;;6165935;28;83123;-67
2021/07/15 14:46:44;;;;;;;30.75;14.18;;;27.80;69.10;;;;;;6166694;28;83219;-68
2021/07/15 14:49:45;;;;;;;21.70;14.25;;;27.80;68.90;;;;;;6163006;28;84389;-67
2021/07/15 14:52:45;;;;;;;27.45;14.90;;;27.80;68.80;;;;;;6162067;28;82978;-68
2021/07/15 14:55:46;;;;;;;24.52;15.70;;;27.80;68.50;;;;;;6164458;28;83482;-67
2021/07/15 14:58:46;;;;;;;23.33;14.40;;;27.80;68.50;;;;;;6167059;28;84664;-68
2021/07/15 15:01:47;;;;;;;20.02;13.90;;;27.80;69.30;;;;;;6166876;28;83480;-68
2021/07/15 15:04:47;;;;;;;23.83;14.77;;;27.80;69.20;;;;;;6161663;28;85919;-69
2021/07/15 15:07:49;;;;;;;22.40;15.57;;;27.80;68.70;;;;;;6163238;28;83478;-69
2021/07/15 15:10:51;;;;;;;21.52;14.52;;;27.80;68.40;;;;;;6169771;28;83259;-69
2021/07/15 15:13:51;;;;;;;28.65;14.65;;;27.80;68.70;;;;;;6168025;28;83773;-70
2021/07/15 15:16:52;;;;;;;22.90;13.70;;;27.80;68.50;;;;;;6174518;28;83973;-67
2021/07/15 15:19:52;;;;;;;21.92;13.98;;;27.80;68.70;;;;;;6173983;28;82784;-69
2021/07/15 15:22:54;;;;;;;26.70;15.23;;;27.80;68.50;;;;;;6176562;28;83303;-69
2021/07/15 15:25:55;;;;;;;27.52;14.27;;;27.80;68.70;;;;;;6172912;28;84044;-67
2021/07/15 15:28:55;;;;;;;21.92;14.60;;;27.80;68.50;;;;;;6173104;28;84164;-67
2021/07/15 15:31:56;;;;;;;24.95;14.55;;;27.80;68.40;;;;;;6171100;28;84053;-67